sensor_id;sensor_type;location;lat;lon;timestamp;P1;durP1;ratioP1;P2;durP2;ratioP2
1026;SDS011;502;48.746;9.214;2023-05-16T00:01:43;13.50;;;12.10;;
1026;SDS011;502;48.746;9.214;2023-05-16T00:04:11;13.53;;;11.40;;
1026;SDS011;502;48.746;9.214;2023-05-16T00:06:37;12.73;;;10.67;;
1026;SDS011;502;48.746;9.214;2023-05-16T00:09:04;16.30;;;13.13;;
1026;SDS011;502;48.746;9.214;2023-05-16T00:11:31;13.63;;;12.23;;
1026;SDS011;502;48.746;9.214;2023-05-16T00:13:57;13.27;;;11.87;;
1026;SDS011;502;48.746;9.214;2023-05-16T00:16:25;14.30;;;12.80;;
1026;SDS011;502;48.746;9.214;2023-05-16T00:18:54;15.40;;;11.97;;
1026;SDS011;502;48.746;9.214;2023-05-16T00:21:23;15.40;;;12.20;;
1026;SDS011;502;48.746;9.214;2023-05-16T00:23:50;16.40;;;13.03;;
1026;SDS011;502;48.746;9.214;2023-05-16T00:26:17;14.90;;;13.23;;
1026;SDS011;502;48.746;9.214;2023-05-16T00:28:43;14.50;;;13.00;;
1026;SDS011;502;48.746;9.214;2023-05-16T00:31:10;16.20;;;13.17;;
1026;SDS011;502;48.746;9.214;2023-05-16T00:33:37;13.93;;;12.40;;
1026;SDS011;502;48.746;9.214;2023-05-16T00:36:03;15.20;;;12.87;;
1026;SDS011;502;48.746;9.214;2023-05-16T00:38:31;14.70;;;13.10;;
1026;SDS011;502;48.746;9.214;2023-05-16T00:40:58;18.17;;;14.23;;
1026;SDS011;502;48.746;9.214;2023-05-16T00:43:24;17.00;;;14.97;;
1026;SDS011;502;48.746;9.214;2023-05-16T00:46:00;17.47;;;14.33;;
1026;SDS011;502;48.746;9.214;2023-05-16T00:48:27;16.23;;;13.30;;
1026;SDS011;502;48.746;9.214;2023-05-16T00:50:54;15.50;;;13.70;;
1026;SDS011;502;48.746;9.214;2023-05-16T00:53:22;16.40;;;14.30;;
1026;SDS011;502;48.746;9.214;2023-05-16T00:55:50;19.70;;;16.13;;
1026;SDS011;502;48.746;9.214;2023-05-16T00:58:17;17.77;;;15.50;;
1026;SDS011;502;48.746;9.214;2023-05-16T01:00:43;19.50;;;17.33;;
1026;SDS011;502;48.746;9.214;2023-05-16T01:03:11;21.70;;;18.10;;
1026;SDS011;502;48.746;9.214;2023-05-16T01:05:38;22.27;;;18.53;;
1026;SDS011;502;48.746;9.214;2023-05-16T01:08:05;21.60;;;18.10;;
1026;SDS011;502;48.746;9.214;2023-05-16T01:10:36;20.90;;;17.03;;
1026;SDS011;502;48.746;9.214;2023-05-16T01:13:08;25.90;;;19.03;;
1026;SDS011;502;48.746;9.214;2023-05-16T01:15:38;19.10;;;16.23;;
1026;SDS011;502;48.746;9.214;2023-05-16T01:18:13;20.73;;;17.53;;
1026;SDS011;502;48.746;9.214;2023-05-16T01:20:42;24.90;;;18.07;;
1026;SDS011;502;48.746;9.214;2023-05-16T01:23:22;22.33;;;18.90;;
1026;SDS011;502;48.746;9.214;2023-05-16T01:25:56;20.37;;;18.20;;
1026;SDS011;502;48.746;9.214;2023-05-16T01:28:30;22.43;;;17.90;;
1026;SDS011;502;48.746;9.214;2023-05-16T01:30:57;22.23;;;18.00;;
1026;SDS011;502;48.746;9.214;2023-05-16T01:33:24;21.23;;;18.37;;
1026;SDS011;502;48.746;9.214;2023-05-16T01:35:52;22.83;;;19.37;;
1026;SDS011;502;48.746;9.214;2023-05-16T01:38:38;21.23;;;18.90;;
1026;SDS011;502;48.746;9.214;2023-05-16T01:41:11;25.73;;;20.33;;
1026;SDS011;502;48.746;9.214;2023-05-16T01:43:41;24.63;;;19.60;;
1026;SDS011;502;48.746;9.214;2023-05-16T01:46:10;24.63;;;20.80;;
1026;SDS011;502;48.746;9.214;2023-05-16T01:48:40;26.57;;;21.10;;
1026;SDS011;502;48.746;9.214;2023-05-16T01:51:10;27.43;;;21.50;;
1026;SDS011;502;48.746;9.214;2023-05-16T01:53:37;28.77;;;22.70;;
1026;SDS011;502;48.746;9.214;2023-05-16T01:56:07;26.63;;;21.60;;
1026;SDS011;502;48.746;9.214;2023-05-16T01:58:39;30.07;;;22.20;;
1026;SDS011;502;48.746;9.214;2023-05-16T02:01:06;27.10;;;21.17;;
1026;SDS011;502;48.746;9.214;2023-05-16T02:03:32;25.67;;;20.80;;
1026;SDS011;502;48.746;9.214;2023-05-16T02:05:59;27.50;;;21.93;;
1026;SDS011;502;48.746;9.214;2023-05-16T02:08:27;32.30;;;23.00;;
1026;SDS011;502;48.746;9.214;2023-05-16T02:10:53;28.20;;;20.80;;
1026;SDS011;502;48.746;9.214;2023-05-16T02:13:21;31.03;;;23.13;;
1026;SDS011;502;48.746;9.214;2023-05-16T02:15:48;29.40;;;22.47;;
1026;SDS011;502;48.746;9.214;2023-05-16T02:18:15;28.40;;;22.33;;
1026;SDS011;502;48.746;9.214;2023-05-16T02:20:43;28.57;;;23.27;;
1026;SDS011;502;48.746;9.214;2023-05-16T02:23:09;28.47;;;22.60;;
1026;SDS011;502;48.746;9.214;2023-05-16T02:25:36;35.27;;;24.23;;
1026;SDS011;502;48.746;9.214;2023-05-16T02:30:57;32.30;;;24.93;;
1026;SDS011;502;48.746;9.214;2023-05-16T02:33:25;31.40;;;23.53;;
1026;SDS011;502;48.746;9.214;2023-05-16T02:35:51;29.27;;;23.60;;
1026;SDS011;502;48.746;9.214;2023-05-16T02:38:18;31.73;;;23.90;;
1026;SDS011;502;48.746;9.214;2023-05-16T02:40:45;33.33;;;24.63;;
1026;SDS011;502;48.746;9.214;2023-05-16T02:43:11;29.80;;;22.83;;
1026;SDS011;502;48.746;9.214;2023-05-16T02:45:39;33.87;;;25.30;;
1026;SDS011;502;48.746;9.214;2023-05-16T02:48:06;30.67;;;23.20;;
1026;SDS011;502;48.746;9.214;2023-05-16T02:50:33;33.83;;;23.80;;
1026;SDS011;502;48.746;9.214;2023-05-16T02:53:00;34.00;;;22.67;;
1026;SDS011;502;48.746;9.214;2023-05-16T02:55:26;30.70;;;23.77;;
1026;SDS011;502;48.746;9.214;2023-05-16T02:57:53;29.40;;;22.17;;
1026;SDS011;502;48.746;9.214;2023-05-16T03:00:20;28.40;;;23.90;;
1026;SDS011;502;48.746;9.214;2023-05-16T03:02:49;29.80;;;22.97;;
1026;SDS011;502;48.746;9.214;2023-05-16T03:05:15;32.10;;;24.00;;
1026;SDS011;502;48.746;9.214;2023-05-16T03:07:42;34.90;;;24.87;;
1026;SDS011;502;48.746;9.214;2023-05-16T03:10:09;31.53;;;24.43;;
1026;SDS011;502;48.746;9.214;2023-05-16T03:12:37;32.80;;;23.80;;
1026;SDS011;502;48.746;9.214;2023-05-16T03:15:04;32.47;;;22.70;;
1026;SDS011;502;48.746;9.214;2023-05-16T03:17:34;32.43;;;24.40;;
1026;SDS011;502;48.746;9.214;2023-05-16T03:20:03;33.37;;;24.13;;
1026;SDS011;502;48.746;9.214;2023-05-16T03:22:33;38.47;;;25.97;;
1026;SDS011;502;48.746;9.214;2023-05-16T03:24:59;29.70;;;23.17;;
1026;SDS011;502;48.746;9.214;2023-05-16T03:27:26;34.17;;;26.10;;
1026;SDS011;502;48.746;9.214;2023-05-16T03:29:53;33.60;;;24.17;;
1026;SDS011;502;48.746;9.214;2023-05-16T03:32:20;37.63;;;24.80;;
1026;SDS011;502;48.746;9.214;2023-05-16T03:34:46;32.23;;;24.40;;
1026;SDS011;502;48.746;9.214;2023-05-16T03:37:14;33.10;;;24.17;;
1026;SDS011;502;48.746;9.214;2023-05-16T03:39:41;32.93;;;25.07;;
1026;SDS011;502;48.746;9.214;2023-05-16T03:42:07;32.70;;;23.83;;
1026;SDS011;502;48.746;9.214;2023-05-16T03:44:34;39.90;;;26.00;;
1026;SDS011;502;48.746;9.214;2023-05-16T03:47:00;41.60;;;29.80;;
1026;SDS011;502;48.746;9.214;2023-05-16T03:49:27;33.90;;;24.77;;
1026;SDS011;502;48.746;9.214;2023-05-16T03:51:54;34.00;;;25.70;;
1026;SDS011;502;48.746;9.214;2023-05-16T03:54:22;40.50;;;27.40;;
1026;SDS011;502;48.746;9.214;2023-05-16T03:56:49;39.93;;;29.70;;
1026;SDS011;502;48.746;9.214;2023-05-16T03:59:15;37.80;;;25.87;;
1026;SDS011;502;48.746;9.214;2023-05-16T04:01:42;37.00;;;27.67;;
1026;SDS011;502;48.746;9.214;2023-05-16T04:04:08;39.00;;;26.00;;
1026;SDS011;502;48.746;9.214;2023-05-16T04:06:35;38.20;;;25.90;;
1026;SDS011;502;48.746;9.214;2023-05-16T04:09:01;37.40;;;27.23;;
1026;SDS011;502;48.746;9.214;2023-05-16T04:11:33;40.23;;;27.33;;
1026;SDS011;502;48.746;9.214;2023-05-16T04:14:00;37.30;;;27.17;;
1026;SDS011;502;48.746;9.214;2023-05-16T04:16:27;38.90;;;27.90;;
1026;SDS011;502;48.746;9.214;2023-05-16T04:18:53;39.80;;;26.30;;
1026;SDS011;502;48.746;9.214;2023-05-16T04:21:20;38.23;;;26.67;;
1026;SDS011;502;48.746;9.214;2023-05-16T04:23:47;38.03;;;28.63;;
1026;SDS011;502;48.746;9.214;2023-05-16T04:26:13;35.30;;;25.10;;
1026;SDS011;502;48.746;9.214;2023-05-16T04:28:41;39.83;;;29.47;;
1026;SDS011;502;48.746;9.214;2023-05-16T04:31:08;44.37;;;30.77;;
1026;SDS011;502;48.746;9.214;2023-05-16T04:33:35;47.97;;;30.00;;
1026;SDS011;502;48.746;9.214;2023-05-16T04:36:01;39.20;;;27.97;;
1026;SDS011;502;48.746;9.214;2023-05-16T04:38:30;40.20;;;26.40;;
1026;SDS011;502;48.746;9.214;2023-05-16T04:40:56;41.43;;;29.57;;
1026;SDS011;502;48.746;9.214;2023-05-16T04:43:25;42.03;;;26.23;;
1026;SDS011;502;48.746;9.214;2023-05-16T04:45:53;41.60;;;28.40;;
1026;SDS011;502;48.746;9.214;2023-05-16T04:48:20;36.53;;;26.70;;
1026;SDS011;502;48.746;9.214;2023-05-16T04:50:46;40.80;;;25.30;;
1026;SDS011;502;48.746;9.214;2023-05-16T04:53:13;40.60;;;27.47;;
1026;SDS011;502;48.746;9.214;2023-05-16T04:55:40;36.07;;;25.20;;
1026;SDS011;502;48.746;9.214;2023-05-16T04:58:06;37.50;;;26.00;;
1026;SDS011;502;48.746;9.214;2023-05-16T05:00:33;36.00;;;25.07;;
1026;SDS011;502;48.746;9.214;2023-05-16T05:03:01;38.10;;;28.00;;
1026;SDS011;502;48.746;9.214;2023-05-16T05:05:27;41.10;;;28.77;;
1026;SDS011;502;48.746;9.214;2023-05-16T05:07:54;33.40;;;25.17;;
1026;SDS011;502;48.746;9.214;2023-05-16T05:10:20;34.70;;;25.33;;
1026;SDS011;502;48.746;9.214;2023-05-16T05:12:47;34.40;;;25.40;;
1026;SDS011;502;48.746;9.214;2023-05-16T05:15:13;38.47;;;27.43;;
1026;SDS011;502;48.746;9.214;2023-05-16T05:17:40;35.83;;;23.20;;
1026;SDS011;502;48.746;9.214;2023-05-16T05:20:08;36.53;;;25.83;;
1026;SDS011;502;48.746;9.214;2023-05-16T05:22:36;36.93;;;26.00;;
1026;SDS011;502;48.746;9.214;2023-05-16T05:25:03;38.87;;;27.00;;
1026;SDS011;502;48.746;9.214;2023-05-16T05:27:31;36.80;;;25.30;;
1026;SDS011;502;48.746;9.214;2023-05-16T05:29:57;38.90;;;26.50;;
1026;SDS011;502;48.746;9.214;2023-05-16T05:32:24;34.70;;;25.17;;
1026;SDS011;502;48.746;9.214;2023-05-16T05:34:50;38.23;;;28.23;;
1026;SDS011;502;48.746;9.214;2023-05-16T05:37:19;34.43;;;24.40;;
1026;SDS011;502;48.746;9.214;2023-05-16T05:39:45;35.93;;;27.40;;
1026;SDS011;502;48.746;9.214;2023-05-16T05:42:12;37.80;;;27.40;;
1026;SDS011;502;48.746;9.214;2023-05-16T05:44:38;36.37;;;26.50;;
1026;SDS011;502;48.746;9.214;2023-05-16T05:47:05;35.10;;;25.63;;
1026;SDS011;502;48.746;9.214;2023-05-16T05:49:32;35.77;;;26.20;;
1026;SDS011;502;48.746;9.214;2023-05-16T05:52:00;38.13;;;25.93;;
1026;SDS011;502;48.746;9.214;2023-05-16T05:54:28;38.90;;;26.70;;
1026;SDS011;502;48.746;9.214;2023-05-16T05:56:55;38.13;;;24.90;;
1026;SDS011;502;48.746;9.214;2023-05-16T05:59:22;36.00;;;24.60;;
1026;SDS011;502;48.746;9.214;2023-05-16T06:01:51;31.13;;;21.30;;
1026;SDS011;502;48.746;9.214;2023-05-16T06:04:18;34.23;;;23.90;;
1026;SDS011;502;48.746;9.214;2023-05-16T06:06:44;36.57;;;25.30;;
1026;SDS011;502;48.746;9.214;2023-05-16T06:09:11;39.80;;;27.20;;
1026;SDS011;502;48.746;9.214;2023-05-16T06:11:40;33.60;;;24.90;;
1026;SDS011;502;48.746;9.214;2023-05-16T06:14:07;32.37;;;24.33;;
1026;SDS011;502;48.746;9.214;2023-05-16T06:16:34;32.93;;;22.43;;
1026;SDS011;502;48.746;9.214;2023-05-16T06:19:00;32.40;;;22.97;;
1026;SDS011;502;48.746;9.214;2023-05-16T06:21:27;36.40;;;25.53;;
1026;SDS011;502;48.746;9.214;2023-05-16T06:23:53;37.00;;;23.93;;
1026;SDS011;502;48.746;9.214;2023-05-16T06:26:20;33.83;;;24.33;;
1026;SDS011;502;48.746;9.214;2023-05-16T06:28:48;32.90;;;25.80;;
1026;SDS011;502;48.746;9.214;2023-05-16T06:31:15;34.10;;;24.70;;
1026;SDS011;502;48.746;9.214;2023-05-16T06:33:42;33.43;;;22.97;;
1026;SDS011;502;48.746;9.214;2023-05-16T06:36:08;32.10;;;23.30;;
1026;SDS011;502;48.746;9.214;2023-05-16T06:38:35;32.03;;;24.30;;
1026;SDS011;502;48.746;9.214;2023-05-16T06:41:02;34.47;;;24.17;;
1026;SDS011;502;48.746;9.214;2023-05-16T06:43:28;31.30;;;22.33;;
1026;SDS011;502;48.746;9.214;2023-05-16T06:45:56;28.03;;;21.50;;
1026;SDS011;502;48.746;9.214;2023-05-16T06:48:23;32.77;;;22.80;;
1026;SDS011;502;48.746;9.214;2023-05-16T06:50:54;33.93;;;23.20;;
1026;SDS011;502;48.746;9.214;2023-05-16T06:53:24;30.63;;;22.13;;
1026;SDS011;502;48.746;9.214;2023-05-16T06:55:52;31.37;;;22.07;;
1026;SDS011;502;48.746;9.214;2023-05-16T06:58:18;31.33;;;21.70;;
1026;SDS011;502;48.746;9.214;2023-05-16T07:00:45;33.10;;;20.60;;
1026;SDS011;502;48.746;9.214;2023-05-16T07:03:13;28.07;;;21.53;;
1026;SDS011;502;48.746;9.214;2023-05-16T07:05:39;29.30;;;22.83;;
1026;SDS011;502;48.746;9.214;2023-05-16T07:08:07;26.67;;;19.50;;
1026;SDS011;502;48.746;9.214;2023-05-16T07:10:34;26.93;;;20.00;;
1026;SDS011;502;48.746;9.214;2023-05-16T07:13:00;25.97;;;21.00;;
1026;SDS011;502;48.746;9.214;2023-05-16T07:15:29;28.47;;;21.17;;
1026;SDS011;502;48.746;9.214;2023-05-16T07:17:55;26.70;;;21.07;;
1026;SDS011;502;48.746;9.214;2023-05-16T07:20:23;26.40;;;19.93;;
1026;SDS011;502;48.746;9.214;2023-05-16T07:22:50;29.70;;;19.80;;
1026;SDS011;502;48.746;9.214;2023-05-16T07:25:16;26.77;;;21.30;;
1026;SDS011;502;48.746;9.214;2023-05-16T07:27:46;26.23;;;20.60;;
1026;SDS011;502;48.746;9.214;2023-05-16T07:30:15;29.00;;;20.90;;
1026;SDS011;502;48.746;9.214;2023-05-16T07:32:41;24.53;;;20.90;;
1026;SDS011;502;48.746;9.214;2023-05-16T07:35:08;23.50;;;19.47;;
1026;SDS011;502;48.746;9.214;2023-05-16T07:37:38;23.83;;;18.20;;
1026;SDS011;502;48.746;9.214;2023-05-16T07:40:07;20.80;;;16.93;;
1026;SDS011;502;48.746;9.214;2023-05-16T07:42:34;22.67;;;17.83;;
1026;SDS011;502;48.746;9.214;2023-05-16T07:45:01;19.83;;;16.17;;
1026;SDS011;502;48.746;9.214;2023-05-16T07:47:27;17.70;;;13.43;;
1026;SDS011;502;48.746;9.214;2023-05-16T07:49:54;17.93;;;15.93;;
1026;SDS011;502;48.746;9.214;2023-05-16T07:52:20;16.23;;;13.20;;
1026;SDS011;502;48.746;9.214;2023-05-16T07:54:48;18.70;;;12.80;;
1026;SDS011;502;48.746;9.214;2023-05-16T07:57:15;14.43;;;11.33;;
1026;SDS011;502;48.746;9.214;2023-05-16T07:59:42;15.53;;;12.43;;
1026;SDS011;502;48.746;9.214;2023-05-16T08:02:09;14.50;;;12.17;;
1026;SDS011;502;48.746;9.214;2023-05-16T08:04:35;16.10;;;13.20;;
1026;SDS011;502;48.746;9.214;2023-05-16T08:07:02;14.60;;;12.20;;
1026;SDS011;502;48.746;9.214;2023-05-16T08:09:29;15.23;;;11.57;;
1026;SDS011;502;48.746;9.214;2023-05-16T08:11:57;12.33;;;10.67;;
1026;SDS011;502;48.746;9.214;2023-05-16T08:14:28;13.30;;;11.23;;
1026;SDS011;502;48.746;9.214;2023-05-16T08:16:55;13.07;;;11.57;;
1026;SDS011;502;48.746;9.214;2023-05-16T08:19:22;13.03;;;11.23;;
1026;SDS011;502;48.746;9.214;2023-05-16T08:21:49;12.43;;;10.60;;
1026;SDS011;502;48.746;9.214;2023-05-16T08:24:16;13.57;;;11.57;;
1026;SDS011;502;48.746;9.214;2023-05-16T08:26:42;14.50;;;11.33;;
1026;SDS011;502;48.746;9.214;2023-05-16T08:29:10;13.37;;;11.17;;
1026;SDS011;502;48.746;9.214;2023-05-16T08:31:37;12.47;;;10.97;;
1026;SDS011;502;48.746;9.214;2023-05-16T08:34:04;14.27;;;12.07;;
1026;SDS011;502;48.746;9.214;2023-05-16T08:36:31;13.30;;;11.13;;
1026;SDS011;502;48.746;9.214;2023-05-16T08:38:58;15.03;;;11.43;;
1026;SDS011;502;48.746;9.214;2023-05-16T08:41:25;14.00;;;11.17;;
1026;SDS011;502;48.746;9.214;2023-05-16T08:43:51;13.10;;;10.37;;
1026;SDS011;502;48.746;9.214;2023-05-16T08:46:20;14.30;;;12.00;;
1026;SDS011;502;48.746;9.214;2023-05-16T08:48:48;14.50;;;12.77;;
1026;SDS011;502;48.746;9.214;2023-05-16T08:51:17;18.23;;;12.37;;
1026;SDS011;502;48.746;9.214;2023-05-16T08:53:53;14.37;;;11.60;;
1026;SDS011;502;48.746;9.214;2023-05-16T08:56:25;19.10;;;13.57;;
1026;SDS011;502;48.746;9.214;2023-05-16T08:58:52;17.00;;;13.70;;
1026;SDS011;502;48.746;9.214;2023-05-16T09:01:21;15.57;;;12.93;;
1026;SDS011;502;48.746;9.214;2023-05-16T09:03:47;19.10;;;14.20;;
1026;SDS011;502;48.746;9.214;2023-05-16T09:06:14;16.27;;;13.43;;
1026;SDS011;502;48.746;9.214;2023-05-16T09:08:41;19.13;;;15.73;;
1026;SDS011;502;48.746;9.214;2023-05-16T09:11:08;16.40;;;13.73;;
1026;SDS011;502;48.746;9.214;2023-05-16T09:13:35;17.70;;;12.70;;
1026;SDS011;502;48.746;9.214;2023-05-16T09:16:10;21.53;;;15.50;;
1026;SDS011;502;48.746;9.214;2023-05-16T09:18:38;19.33;;;15.07;;
1026;SDS011;502;48.746;9.214;2023-05-16T09:21:06;19.80;;;15.00;;
1026;SDS011;502;48.746;9.214;2023-05-16T09:23:32;18.07;;;14.23;;
1026;SDS011;502;48.746;9.214;2023-05-16T09:26:00;21.83;;;16.30;;
1026;SDS011;502;48.746;9.214;2023-05-16T09:28:26;20.80;;;16.60;;
1026;SDS011;502;48.746;9.214;2023-05-16T09:30:53;19.77;;;14.63;;
1026;SDS011;502;48.746;9.214;2023-05-16T09:33:23;21.93;;;16.77;;
1026;SDS011;502;48.746;9.214;2023-05-16T09:35:55;20.57;;;15.43;;
1026;SDS011;502;48.746;9.214;2023-05-16T09:38:23;24.17;;;16.17;;
1026;SDS011;502;48.746;9.214;2023-05-16T09:40:51;22.03;;;17.27;;
1026;SDS011;502;48.746;9.214;2023-05-16T09:43:21;20.13;;;16.33;;
1026;SDS011;502;48.746;9.214;2023-05-16T09:45:50;22.57;;;16.53;;
1026;SDS011;502;48.746;9.214;2023-05-16T09:48:17;23.13;;;16.97;;
1026;SDS011;502;48.746;9.214;2023-05-16T09:50:48;21.23;;;15.77;;
1026;SDS011;502;48.746;9.214;2023-05-16T09:53:18;24.03;;;16.50;;
1026;SDS011;502;48.746;9.214;2023-05-16T09:55:58;20.87;;;16.30;;
1026;SDS011;502;48.746;9.214;2023-05-16T09:58:27;27.63;;;17.87;;
1026;SDS011;502;48.746;9.214;2023-05-16T10:00:54;24.23;;;16.97;;
1026;SDS011;502;48.746;9.214;2023-05-16T10:03:21;20.10;;;17.07;;
1026;SDS011;502;48.746;9.214;2023-05-16T10:05:48;26.10;;;19.27;;
1026;SDS011;502;48.746;9.214;2023-05-16T10:08:18;19.57;;;16.23;;
1026;SDS011;502;48.746;9.214;2023-05-16T10:10:45;24.40;;;16.80;;
1026;SDS011;502;48.746;9.214;2023-05-16T10:13:15;25.90;;;17.60;;
1026;SDS011;502;48.746;9.214;2023-05-16T10:15:42;21.47;;;15.93;;
1026;SDS011;502;48.746;9.214;2023-05-16T10:18:10;20.27;;;15.27;;
1026;SDS011;502;48.746;9.214;2023-05-16T10:20:39;23.50;;;16.20;;
1026;SDS011;502;48.746;9.214;2023-05-16T10:23:07;23.73;;;17.60;;
1026;SDS011;502;48.746;9.214;2023-05-16T10:25:38;24.50;;;18.43;;
1026;SDS011;502;48.746;9.214;2023-05-16T10:28:06;25.50;;;17.47;;
1026;SDS011;502;48.746;9.214;2023-05-16T10:30:33;26.40;;;18.50;;
1026;SDS011;502;48.746;9.214;2023-05-16T10:33:00;22.47;;;17.53;;
1026;SDS011;502;48.746;9.214;2023-05-16T10:35:28;22.93;;;16.60;;
1026;SDS011;502;48.746;9.214;2023-05-16T10:37:55;23.83;;;17.00;;
1026;SDS011;502;48.746;9.214;2023-05-16T10:40:22;21.73;;;14.20;;
1026;SDS011;502;48.746;9.214;2023-05-16T10:42:57;22.10;;;15.63;;
1026;SDS011;502;48.746;9.214;2023-05-16T10:45:25;23.80;;;17.03;;
1026;SDS011;502;48.746;9.214;2023-05-16T10:47:53;20.60;;;15.40;;
1026;SDS011;502;48.746;9.214;2023-05-16T10:50:30;20.43;;;14.40;;
1026;SDS011;502;48.746;9.214;2023-05-16T10:53:12;24.60;;;16.30;;
1026;SDS011;502;48.746;9.214;2023-05-16T10:55:43;23.63;;;17.30;;
1026;SDS011;502;48.746;9.214;2023-05-16T10:58:12;26.40;;;15.97;;
1026;SDS011;502;48.746;9.214;2023-05-16T11:00:44;20.83;;;15.83;;
1026;SDS011;502;48.746;9.214;2023-05-16T11:03:18;21.80;;;15.70;;
1026;SDS011;502;48.746;9.214;2023-05-16T11:05:50;23.50;;;16.87;;
1026;SDS011;502;48.746;9.214;2023-05-16T11:08:18;22.23;;;15.20;;
1026;SDS011;502;48.746;9.214;2023-05-16T11:10:44;20.47;;;14.53;;
1026;SDS011;502;48.746;9.214;2023-05-16T11:13:12;21.00;;;14.80;;
1026;SDS011;502;48.746;9.214;2023-05-16T11:15:43;23.00;;;15.03;;
1026;SDS011;502;48.746;9.214;2023-05-16T11:18:13;21.13;;;16.20;;
1026;SDS011;502;48.746;9.214;2023-05-16T11:20:40;18.80;;;14.07;;
1026;SDS011;502;48.746;9.214;2023-05-16T11:23:16;18.37;;;12.57;;
1026;SDS011;502;48.746;9.214;2023-05-16T11:25:47;18.43;;;12.80;;
1026;SDS011;502;48.746;9.214;2023-05-16T11:28:16;16.87;;;13.20;;
1026;SDS011;502;48.746;9.214;2023-05-16T11:30:44;15.73;;;12.10;;
1026;SDS011;502;48.746;9.214;2023-05-16T11:33:12;13.50;;;10.37;;
1026;SDS011;502;48.746;9.214;2023-05-16T11:35:38;17.10;;;10.90;;
1026;SDS011;502;48.746;9.214;2023-05-16T11:38:10;19.43;;;12.93;;
1026;SDS011;502;48.746;9.214;2023-05-16T11:40:40;14.77;;;10.90;;
1026;SDS011;502;48.746;9.214;2023-05-16T11:43:08;16.00;;;10.77;;
1026;SDS011;502;48.746;9.214;2023-05-16T11:45:36;14.07;;;10.93;;
1026;SDS011;502;48.746;9.214;2023-05-16T11:48:03;13.67;;;10.03;;
1026;SDS011;502;48.746;9.214;2023-05-16T11:50:32;12.40;;;9.40;;
1026;SDS011;502;48.746;9.214;2023-05-16T11:52:59;14.13;;;10.20;;
1026;SDS011;502;48.746;9.214;2023-05-16T11:55:27;12.03;;;9.77;;
1026;SDS011;502;48.746;9.214;2023-05-16T11:57:55;12.90;;;9.40;;
1026;SDS011;502;48.746;9.214;2023-05-16T12:00:25;12.37;;;9.87;;
1026;SDS011;502;48.746;9.214;2023-05-16T12:02:54;13.50;;;11.50;;
1026;SDS011;502;48.746;9.214;2023-05-16T12:05:27;13.03;;;10.70;;
1026;SDS011;502;48.746;9.214;2023-05-16T12:07:55;15.03;;;11.30;;
1026;SDS011;502;48.746;9.214;2023-05-16T12:10:21;14.07;;;11.17;;
1026;SDS011;502;48.746;9.214;2023-05-16T12:12:49;13.07;;;11.13;;
1026;SDS011;502;48.746;9.214;2023-05-16T12:15:17;15.77;;;11.97;;
1026;SDS011;502;48.746;9.214;2023-05-16T12:17:44;13.40;;;10.93;;
1026;SDS011;502;48.746;9.214;2023-05-16T12:20:12;12.10;;;10.20;;
1026;SDS011;502;48.746;9.214;2023-05-16T12:22:40;14.60;;;11.00;;
1026;SDS011;502;48.746;9.214;2023-05-16T12:25:20;13.97;;;11.00;;
1026;SDS011;502;48.746;9.214;2023-05-16T12:27:48;16.20;;;12.13;;
1026;SDS011;502;48.746;9.214;2023-05-16T12:30:15;13.20;;;10.63;;
1026;SDS011;502;48.746;9.214;2023-05-16T12:32:42;14.60;;;11.07;;
1026;SDS011;502;48.746;9.214;2023-05-16T12:35:09;12.63;;;9.50;;
1026;SDS011;502;48.746;9.214;2023-05-16T12:37:43;14.03;;;10.47;;
1026;SDS011;502;48.746;9.214;2023-05-16T12:40:10;9.53;;;7.77;;
1026;SDS011;502;48.746;9.214;2023-05-16T12:42:37;9.80;;;7.90;;
1026;SDS011;502;48.746;9.214;2023-05-16T12:45:04;10.60;;;7.40;;
1026;SDS011;502;48.746;9.214;2023-05-16T12:47:34;8.77;;;7.30;;
1026;SDS011;502;48.746;9.214;2023-05-16T12:50:02;11.43;;;7.60;;
1026;SDS011;502;48.746;9.214;2023-05-16T12:52:28;6.87;;;5.73;;
1026;SDS011;502;48.746;9.214;2023-05-16T12:54:59;8.10;;;6.80;;
1026;SDS011;502;48.746;9.214;2023-05-16T12:57:26;7.80;;;6.27;;
1026;SDS011;502;48.746;9.214;2023-05-16T12:59:53;7.67;;;5.90;;
1026;SDS011;502;48.746;9.214;2023-05-16T13:02:23;8.80;;;6.50;;
1026;SDS011;502;48.746;9.214;2023-05-16T13:04:49;7.50;;;6.70;;
1026;SDS011;502;48.746;9.214;2023-05-16T13:07:16;8.03;;;5.43;;
1026;SDS011;502;48.746;9.214;2023-05-16T13:09:44;6.57;;;5.80;;
1026;SDS011;502;48.746;9.214;2023-05-16T13:12:11;8.07;;;6.20;;
1026;SDS011;502;48.746;9.214;2023-05-16T13:14:40;9.43;;;6.93;;
1026;SDS011;502;48.746;9.214;2023-05-16T13:17:09;8.20;;;6.50;;
1026;SDS011;502;48.746;9.214;2023-05-16T13:19:36;6.97;;;6.27;;
1026;SDS011;502;48.746;9.214;2023-05-16T13:22:03;5.90;;;5.23;;
1026;SDS011;502;48.746;9.214;2023-05-16T13:24:29;7.00;;;5.90;;
1026;SDS011;502;48.746;9.214;2023-05-16T13:26:56;6.57;;;5.13;;
1026;SDS011;502;48.746;9.214;2023-05-16T13:29:25;6.13;;;5.43;;
1026;SDS011;502;48.746;9.214;2023-05-16T13:31:51;6.17;;;4.90;;
1026;SDS011;502;48.746;9.214;2023-05-16T13:34:18;6.10;;;5.50;;
1026;SDS011;502;48.746;9.214;2023-05-16T13:36:44;8.33;;;5.70;;
1026;SDS011;502;48.746;9.214;2023-05-16T13:39:14;10.90;;;6.27;;
1026;SDS011;502;48.746;9.214;2023-05-16T13:41:40;5.77;;;4.53;;
1026;SDS011;502;48.746;9.214;2023-05-16T13:44:07;4.67;;;4.10;;
1026;SDS011;502;48.746;9.214;2023-05-16T13:46:35;5.50;;;4.47;;
1026;SDS011;502;48.746;9.214;2023-05-16T13:49:02;5.73;;;4.77;;
1026;SDS011;502;48.746;9.214;2023-05-16T13:51:28;6.00;;;4.33;;
1026;SDS011;502;48.746;9.214;2023-05-16T13:53:55;5.03;;;4.53;;
1026;SDS011;502;48.746;9.214;2023-05-16T13:56:23;5.40;;;4.20;;
1026;SDS011;502;48.746;9.214;2023-05-16T13:58:50;9.07;;;5.10;;
1026;SDS011;502;48.746;9.214;2023-05-16T14:01:17;5.53;;;4.67;;
1026;SDS011;502;48.746;9.214;2023-05-16T14:03:45;7.07;;;5.53;;
1026;SDS011;502;48.746;9.214;2023-05-16T14:06:11;5.43;;;4.87;;
1026;SDS011;502;48.746;9.214;2023-05-16T14:08:39;5.40;;;4.90;;
1026;SDS011;502;48.746;9.214;2023-05-16T14:11:05;7.90;;;5.60;;
1026;SDS011;502;48.746;9.214;2023-05-16T14:13:32;5.40;;;4.70;;
1026;SDS011;502;48.746;9.214;2023-05-16T14:15:58;5.10;;;4.60;;
1026;SDS011;502;48.746;9.214;2023-05-16T14:18:26;5.17;;;4.67;;
1026;SDS011;502;48.746;9.214;2023-05-16T14:20:54;4.77;;;4.30;;
1026;SDS011;502;48.746;9.214;2023-05-16T14:23:20;5.37;;;4.83;;
1026;SDS011;502;48.746;9.214;2023-05-16T14:25:47;5.00;;;4.50;;
1026;SDS011;502;48.746;9.214;2023-05-16T14:28:13;5.27;;;4.77;;
1026;SDS011;502;48.746;9.214;2023-05-16T14:30:40;5.10;;;4.60;;
1026;SDS011;502;48.746;9.214;2023-05-16T14:33:07;5.73;;;4.80;;
1026;SDS011;502;48.746;9.214;2023-05-16T14:35:33;5.67;;;5.07;;
1026;SDS011;502;48.746;9.214;2023-05-16T14:38:03;5.33;;;4.77;;
1026;SDS011;502;48.746;9.214;2023-05-16T14:40:31;5.50;;;5.00;;
1026;SDS011;502;48.746;9.214;2023-05-16T14:42:58;6.40;;;4.70;;
1026;SDS011;502;48.746;9.214;2023-05-16T14:45:24;6.60;;;5.63;;
1026;SDS011;502;48.746;9.214;2023-05-16T14:47:51;6.53;;;5.20;;
1026;SDS011;502;48.746;9.214;2023-05-16T14:50:18;5.13;;;4.60;;
1026;SDS011;502;48.746;9.214;2023-05-16T14:52:44;6.30;;;5.23;;
1026;SDS011;502;48.746;9.214;2023-05-16T14:55:12;5.00;;;4.43;;
1026;SDS011;502;48.746;9.214;2023-05-16T14:57:39;5.17;;;4.47;;
1026;SDS011;502;48.746;9.214;2023-05-16T15:00:07;4.97;;;4.00;;
1026;SDS011;502;48.746;9.214;2023-05-16T15:02:35;4.53;;;3.70;;
1026;SDS011;502;48.746;9.214;2023-05-16T15:05:02;4.13;;;3.37;;
1026;SDS011;502;48.746;9.214;2023-05-16T15:07:30;4.60;;;4.10;;
1026;SDS011;502;48.746;9.214;2023-05-16T15:09:57;3.63;;;3.30;;
1026;SDS011;502;48.746;9.214;2023-05-16T15:12:25;4.73;;;3.53;;